Mescalero Apache Indian Rese, New Mexico
Current Conditions -  °F | °C
As of 3:35 AM on Monday 26 Jan 2015 (Local Time) from KSRR Reporting Station
Clear Clear  
Wind Chill: 30°   Ceiling: Unl
Heat Index: 36°   Visibility: 10mi
Dew Point: 16°   Wind: 7mph
Humidity: 44%   Direction: 300°WNW
Pressure: 30.37"   Gusts: NA
Location:  33.1783°N, 105.612°W
Report Text: KSRR 261035Z AUTO 30006KT 10SM CLR 02/M09 A3037 RMK AO2
Loading
Personal Weather Stations






























Interactive Weather Map New forecast layout! Learn more

10-Day Weather Forecast

Advertisements
Track Severe Weather on mobile